sensor_id;sensor_type;location;lat;lon;timestamp;temperature;humidity
27026;DHT22;14565;48.626;8.978;2023-06-04T00:01:12;13.60;99.90
27026;DHT22;14565;48.626;8.978;2023-06-04T00:03:37;13.50;99.90
27026;DHT22;14565;48.626;8.978;2023-06-04T00:06:03;13.60;99.90
27026;DHT22;14565;48.626;8.978;2023-06-04T00:08:28;13.20;99.90
27026;DHT22;14565;48.626;8.978;2023-06-04T00:10:54;13.20;99.90
27026;DHT22;14565;48.626;8.978;2023-06-04T00:13:20;13.30;99.90
27026;DHT22;14565;48.626;8.978;2023-06-04T00:15:45;13.40;99.90
27026;DHT22;14565;48.626;8.978;2023-06-04T00:18:11;13.30;99.90
27026;DHT22;14565;48.626;8.978;2023-06-04T00:20:38;13.30;99.90
27026;DHT22;14565;48.626;8.978;2023-06-04T00:23:04;13.20;99.90
27026;DHT22;14565;48.626;8.978;2023-06-04T00:25:31;13.10;99.90
27026;DHT22;14565;48.626;8.978;2023-06-04T00:27:56;13.00;99.90
27026;DHT22;14565;48.626;8.978;2023-06-04T00:30:22;12.90;99.90
27026;DHT22;14565;48.626;8.978;2023-06-04T00:32:48;12.90;99.90
27026;DHT22;14565;48.626;8.978;2023-06-04T00:35:13;12.70;99.90
27026;DHT22;14565;48.626;8.978;2023-06-04T00:37:39;12.80;99.90
27026;DHT22;14565;48.626;8.978;2023-06-04T00:40:05;12.80;99.90
27026;DHT22;14565;48.626;8.978;2023-06-04T00:42:31;12.80;99.90
27026;DHT22;14565;48.626;8.978;2023-06-04T00:44:58;12.80;99.90
27026;DHT22;14565;48.626;8.978;2023-06-04T00:47:24;12.80;99.90
27026;DHT22;14565;48.626;8.978;2023-06-04T00:49:50;12.90;99.90
27026;DHT22;14565;48.626;8.978;2023-06-04T00:52:16;13.00;99.90
27026;DHT22;14565;48.626;8.978;2023-06-04T00:54:42;12.90;99.90
27026;DHT22;14565;48.626;8.978;2023-06-04T00:57:08;12.90;99.90
27026;DHT22;14565;48.626;8.978;2023-06-04T00:59:38;12.80;99.90
27026;DHT22;14565;48.626;8.978;2023-06-04T01:02:09;12.60;99.90
27026;DHT22;14565;48.626;8.978;2023-06-04T01:04:44;12.60;99.90
27026;DHT22;14565;48.626;8.978;2023-06-04T01:07:13;12.70;99.90
27026;DHT22;14565;48.626;8.978;2023-06-04T01:09:39;12.60;99.90
27026;DHT22;14565;48.626;8.978;2023-06-04T01:12:05;12.30;99.90
27026;DHT22;14565;48.626;8.978;2023-06-04T01:14:32;12.20;99.90
27026;DHT22;14565;48.626;8.978;2023-06-04T01:27:54;12.30;99.90
27026;DHT22;14565;48.626;8.978;2023-06-04T01:30:37;12.20;99.90
27026;DHT22;14565;48.626;8.978;2023-06-04T01:33:12;12.20;99.90
27026;DHT22;14565;48.626;8.978;2023-06-04T01:35:38;12.10;99.90
27026;DHT22;14565;48.626;8.978;2023-06-04T01:38:04;12.00;99.90
27026;DHT22;14565;48.626;8.978;2023-06-04T01:40:30;12.10;99.90
27026;DHT22;14565;48.626;8.978;2023-06-04T01:42:56;12.20;99.90
27026;DHT22;14565;48.626;8.978;2023-06-04T01:45:22;12.20;99.90
27026;DHT22;14565;48.626;8.978;2023-06-04T01:47:48;12.10;99.90
27026;DHT22;14565;48.626;8.978;2023-06-04T01:50:14;12.00;99.90
27026;DHT22;14565;48.626;8.978;2023-06-04T01:52:40;12.00;99.90
27026;DHT22;14565;48.626;8.978;2023-06-04T01:55:08;12.10;99.90
27026;DHT22;14565;48.626;8.978;2023-06-04T01:57:34;11.90;99.90
27026;DHT22;14565;48.626;8.978;2023-06-04T02:00:01;11.80;99.90
27026;DHT22;14565;48.626;8.978;2023-06-04T02:02:27;11.80;99.90
27026;DHT22;14565;48.626;8.978;2023-06-04T02:04:54;11.80;99.90
27026;DHT22;14565;48.626;8.978;2023-06-04T02:07:20;11.80;99.90
27026;DHT22;14565;48.626;8.978;2023-06-04T02:09:49;11.70;99.90
27026;DHT22;14565;48.626;8.978;2023-06-04T02:12:15;11.70;99.90
27026;DHT22;14565;48.626;8.978;2023-06-04T02:14:41;11.80;99.90
27026;DHT22;14565;48.626;8.978;2023-06-04T02:17:08;11.70;99.90
27026;DHT22;14565;48.626;8.978;2023-06-04T02:19:45;11.80;99.90
27026;DHT22;14565;48.626;8.978;2023-06-04T02:22:19;11.50;99.90
27026;DHT22;14565;48.626;8.978;2023-06-04T02:24:46;11.50;99.90
27026;DHT22;14565;48.626;8.978;2023-06-04T02:27:13;11.40;99.90
27026;DHT22;14565;48.626;8.978;2023-06-04T02:29:39;11.50;99.90
27026;DHT22;14565;48.626;8.978;2023-06-04T02:32:06;11.50;99.90
27026;DHT22;14565;48.626;8.978;2023-06-04T02:34:32;11.50;99.90
27026;DHT22;14565;48.626;8.978;2023-06-04T02:36:59;11.50;99.90
27026;DHT22;14565;48.626;8.978;2023-06-04T02:39:25;11.50;99.90
27026;DHT22;14565;48.626;8.978;2023-06-04T02:41:51;11.40;99.90
27026;DHT22;14565;48.626;8.978;2023-06-04T02:44:17;11.40;99.90
27026;DHT22;14565;48.626;8.978;2023-06-04T02:46:43;11.40;99.90
27026;DHT22;14565;48.626;8.978;2023-06-04T02:49:09;11.50;99.90
27026;DHT22;14565;48.626;8.978;2023-06-04T02:51:35;11.40;99.90
27026;DHT22;14565;48.626;8.978;2023-06-04T02:54:01;11.30;99.90
27026;DHT22;14565;48.626;8.978;2023-06-04T02:56:26;11.20;99.90
27026;DHT22;14565;48.626;8.978;2023-06-04T02:58:53;11.10;99.90
27026;DHT22;14565;48.626;8.978;2023-06-04T03:01:24;11.20;99.90
27026;DHT22;14565;48.626;8.978;2023-06-04T03:03:50;11.30;99.90
27026;DHT22;14565;48.626;8.978;2023-06-04T03:06:17;11.10;99.90
27026;DHT22;14565;48.626;8.978;2023-06-04T03:08:43;11.10;99.90
27026;DHT22;14565;48.626;8.978;2023-06-04T03:11:09;10.90;99.90
27026;DHT22;14565;48.626;8.978;2023-06-04T03:13:35;10.80;99.90
27026;DHT22;14565;48.626;8.978;2023-06-04T03:16:01;10.70;99.90
27026;DHT22;14565;48.626;8.978;2023-06-04T03:18:28;10.80;99.90
27026;DHT22;14565;48.626;8.978;2023-06-04T03:20:54;10.80;99.90
27026;DHT22;14565;48.626;8.978;2023-06-04T03:23:20;10.90;99.90
27026;DHT22;14565;48.626;8.978;2023-06-04T03:25:46;11.00;99.90
27026;DHT22;14565;48.626;8.978;2023-06-04T03:28:12;11.00;99.90
27026;DHT22;14565;48.626;8.978;2023-06-04T03:30:37;11.00;99.90
27026;DHT22;14565;48.626;8.978;2023-06-04T03:33:03;10.90;99.90
27026;DHT22;14565;48.626;8.978;2023-06-04T03:35:29;10.90;99.90
27026;DHT22;14565;48.626;8.978;2023-06-04T03:37:54;10.80;99.90
27026;DHT22;14565;48.626;8.978;2023-06-04T03:40:20;10.80;99.90
27026;DHT22;14565;48.626;8.978;2023-06-04T03:42:46;10.80;99.90
27026;DHT22;14565;48.626;8.978;2023-06-04T03:45:11;10.90;99.90
27026;DHT22;14565;48.626;8.978;2023-06-04T03:47:38;10.90;99.90
27026;DHT22;14565;48.626;8.978;2023-06-04T03:50:05;11.00;99.90
27026;DHT22;14565;48.626;8.978;2023-06-04T03:52:31;11.10;99.90
27026;DHT22;14565;48.626;8.978;2023-06-04T03:54:56;11.10;99.90
27026;DHT22;14565;48.626;8.978;2023-06-04T03:57:22;11.10;99.90
27026;DHT22;14565;48.626;8.978;2023-06-04T03:59:48;11.10;99.90
27026;DHT22;14565;48.626;8.978;2023-06-04T04:02:14;11.10;99.90
27026;DHT22;14565;48.626;8.978;2023-06-04T04:04:40;11.30;99.90
27026;DHT22;14565;48.626;8.978;2023-06-04T04:07:06;11.30;99.90
27026;DHT22;14565;48.626;8.978;2023-06-04T04:09:31;11.10;99.90
27026;DHT22;14565;48.626;8.978;2023-06-04T04:11:57;11.20;99.90
27026;DHT22;14565;48.626;8.978;2023-06-04T04:14:22;11.20;99.90
27026;DHT22;14565;48.626;8.978;2023-06-04T04:16:48;11.20;99.90
27026;DHT22;14565;48.626;8.978;2023-06-04T04:19:14;11.30;99.90
27026;DHT22;14565;48.626;8.978;2023-06-04T04:21:39;11.40;99.90
27026;DHT22;14565;48.626;8.978;2023-06-04T04:24:05;11.40;99.90
27026;DHT22;14565;48.626;8.978;2023-06-04T04:26:32;11.40;99.90
27026;DHT22;14565;48.626;8.978;2023-06-04T04:28:58;11.40;99.90
27026;DHT22;14565;48.626;8.978;2023-06-04T04:31:26;11.50;99.90
27026;DHT22;14565;48.626;8.978;2023-06-04T04:33:52;12.00;99.90
27026;DHT22;14565;48.626;8.978;2023-06-04T04:36:18;11.90;99.90
27026;DHT22;14565;48.626;8.978;2023-06-04T04:38:44;11.80;99.90
27026;DHT22;14565;48.626;8.978;2023-06-04T04:41:10;12.00;99.90
27026;DHT22;14565;48.626;8.978;2023-06-04T04:43:37;11.90;99.90
27026;DHT22;14565;48.626;8.978;2023-06-04T04:46:05;11.90;99.90
27026;DHT22;14565;48.626;8.978;2023-06-04T04:48:31;12.00;99.90
27026;DHT22;14565;48.626;8.978;2023-06-04T04:50:57;12.10;99.90
27026;DHT22;14565;48.626;8.978;2023-06-04T04:53:22;12.20;99.90
27026;DHT22;14565;48.626;8.978;2023-06-04T04:55:48;12.30;99.90
27026;DHT22;14565;48.626;8.978;2023-06-04T04:58:14;12.50;99.90
27026;DHT22;14565;48.626;8.978;2023-06-04T05:00:40;12.80;99.90
27026;DHT22;14565;48.626;8.978;2023-06-04T05:03:06;12.70;99.90
27026;DHT22;14565;48.626;8.978;2023-06-04T05:05:32;12.60;99.90
27026;DHT22;14565;48.626;8.978;2023-06-04T05:07:58;12.80;99.90
27026;DHT22;14565;48.626;8.978;2023-06-04T05:10:24;13.00;99.90
27026;DHT22;14565;48.626;8.978;2023-06-04T05:12:53;13.10;99.90
27026;DHT22;14565;48.626;8.978;2023-06-04T05:15:19;13.30;99.90
27026;DHT22;14565;48.626;8.978;2023-06-04T05:17:45;13.60;99.90
27026;DHT22;14565;48.626;8.978;2023-06-04T05:20:12;13.90;99.90
27026;DHT22;14565;48.626;8.978;2023-06-04T05:22:39;14.20;99.90
27026;DHT22;14565;48.626;8.978;2023-06-04T05:25:05;14.40;99.90
27026;DHT22;14565;48.626;8.978;2023-06-04T05:27:34;14.70;99.90
27026;DHT22;14565;48.626;8.978;2023-06-04T05:30:01;14.90;99.90
27026;DHT22;14565;48.626;8.978;2023-06-04T05:32:28;15.60;99.90
27026;DHT22;14565;48.626;8.978;2023-06-04T05:34:57;16.80;99.90
27026;DHT22;14565;48.626;8.978;2023-06-04T05:37:24;18.20;99.90
27026;DHT22;14565;48.626;8.978;2023-06-04T05:39:58;20.50;95.30
27026;DHT22;14565;48.626;8.978;2023-06-04T05:42:23;22.10;93.10
27026;DHT22;14565;48.626;8.978;2023-06-04T05:44:49;23.70;89.90
27026;DHT22;14565;48.626;8.978;2023-06-04T05:47:16;24.80;84.00
27026;DHT22;14565;48.626;8.978;2023-06-04T05:49:44;26.60;77.40
27026;DHT22;14565;48.626;8.978;2023-06-04T05:52:10;27.90;71.40
27026;DHT22;14565;48.626;8.978;2023-06-04T05:54:36;28.50;73.80
27026;DHT22;14565;48.626;8.978;2023-06-04T05:57:05;28.90;70.00
27026;DHT22;14565;48.626;8.978;2023-06-04T05:59:31;30.00;69.60
27026;DHT22;14565;48.626;8.978;2023-06-04T06:01:57;29.20;66.80
27026;DHT22;14565;48.626;8.978;2023-06-04T06:04:22;29.50;67.90
27026;DHT22;14565;48.626;8.978;2023-06-04T06:06:48;26.10;73.70
27026;DHT22;14565;48.626;8.978;2023-06-04T06:09:14;28.00;70.50
27026;DHT22;14565;48.626;8.978;2023-06-04T06:11:41;27.20;71.20
27026;DHT22;14565;48.626;8.978;2023-06-04T06:14:06;27.60;72.50
27026;DHT22;14565;48.626;8.978;2023-06-04T06:16:32;27.50;71.20
27026;DHT22;14565;48.626;8.978;2023-06-04T06:18:58;26.30;73.40
27026;DHT22;14565;48.626;8.978;2023-06-04T06:21:24;28.70;68.10
27026;DHT22;14565;48.626;8.978;2023-06-04T06:23:51;27.00;65.80
27026;DHT22;14565;48.626;8.978;2023-06-04T06:26:16;26.40;67.10
27026;DHT22;14565;48.626;8.978;2023-06-04T06:28:42;26.60;67.00
27026;DHT22;14565;48.626;8.978;2023-06-04T06:31:08;25.40;68.50
27026;DHT22;14565;48.626;8.978;2023-06-04T06:33:33;25.70;68.90
27026;DHT22;14565;48.626;8.978;2023-06-04T06:35:59;26.90;67.50
27026;DHT22;14565;48.626;8.978;2023-06-04T06:38:27;27.00;66.90
27026;DHT22;14565;48.626;8.978;2023-06-04T06:40:53;25.70;68.20
27026;DHT22;14565;48.626;8.978;2023-06-04T06:43:19;26.30;68.20
27026;DHT22;14565;48.626;8.978;2023-06-04T06:45:45;26.60;69.90
27026;DHT22;14565;48.626;8.978;2023-06-04T06:48:11;28.10;66.40
27026;DHT22;14565;48.626;8.978;2023-06-04T06:50:36;26.70;67.50
27026;DHT22;14565;48.626;8.978;2023-06-04T06:53:02;26.00;68.80
27026;DHT22;14565;48.626;8.978;2023-06-04T06:55:28;27.00;67.70
27026;DHT22;14565;48.626;8.978;2023-06-04T06:57:54;26.90;69.80
27026;DHT22;14565;48.626;8.978;2023-06-04T07:00:19;25.60;72.90
27026;DHT22;14565;48.626;8.978;2023-06-04T07:02:45;25.40;74.20
27026;DHT22;14565;48.626;8.978;2023-06-04T07:05:11;26.60;71.00
27026;DHT22;14565;48.626;8.978;2023-06-04T07:07:37;26.60;72.80
27026;DHT22;14565;48.626;8.978;2023-06-04T07:10:03;27.90;69.20
27026;DHT22;14565;48.626;8.978;2023-06-04T07:12:29;26.70;67.60
27026;DHT22;14565;48.626;8.978;2023-06-04T07:14:55;25.60;72.20
27026;DHT22;14565;48.626;8.978;2023-06-04T07:17:22;25.10;74.40
27026;DHT22;14565;48.626;8.978;2023-06-04T07:19:47;26.00;71.30
27026;DHT22;14565;48.626;8.978;2023-06-04T07:22:13;25.50;72.90
27026;DHT22;14565;48.626;8.978;2023-06-04T07:24:41;26.10;73.50
27026;DHT22;14565;48.626;8.978;2023-06-04T07:27:13;25.60;73.70
27026;DHT22;14565;48.626;8.978;2023-06-04T07:29:39;25.30;73.40
27026;DHT22;14565;48.626;8.978;2023-06-04T07:32:05;27.00;72.40
27026;DHT22;14565;48.626;8.978;2023-06-04T07:34:32;27.70;69.80
27026;DHT22;14565;48.626;8.978;2023-06-04T07:36:57;26.90;70.00
27026;DHT22;14565;48.626;8.978;2023-06-04T07:39:23;26.70;71.60
27026;DHT22;14565;48.626;8.978;2023-06-04T07:41:49;26.20;72.30
27026;DHT22;14565;48.626;8.978;2023-06-04T07:44:14;26.40;72.20
27026;DHT22;14565;48.626;8.978;2023-06-04T07:46:40;26.10;72.40
27026;DHT22;14565;48.626;8.978;2023-06-04T07:49:06;25.20;74.50
27026;DHT22;14565;48.626;8.978;2023-06-04T07:51:32;24.60;76.30
27026;DHT22;14565;48.626;8.978;2023-06-04T07:53:57;23.20;79.20
27026;DHT22;14565;48.626;8.978;2023-06-04T07:56:23;23.70;78.80
27026;DHT22;14565;48.626;8.978;2023-06-04T07:58:49;23.20;79.60
27026;DHT22;14565;48.626;8.978;2023-06-04T08:01:14;22.80;80.40
27026;DHT22;14565;48.626;8.978;2023-06-04T08:03:40;22.50;81.30
27026;DHT22;14565;48.626;8.978;2023-06-04T08:06:07;23.10;80.40
27026;DHT22;14565;48.626;8.978;2023-06-04T08:08:32;22.70;81.80
27026;DHT22;14565;48.626;8.978;2023-06-04T08:10:59;22.60;83.40
27026;DHT22;14565;48.626;8.978;2023-06-04T08:13:25;23.10;84.20
27026;DHT22;14565;48.626;8.978;2023-06-04T08:15:51;23.60;81.50
27026;DHT22;14565;48.626;8.978;2023-06-04T08:18:17;23.00;80.00
27026;DHT22;14565;48.626;8.978;2023-06-04T08:20:42;23.30;81.30
27026;DHT22;14565;48.626;8.978;2023-06-04T08:23:08;23.40;79.00
27026;DHT22;14565;48.626;8.978;2023-06-04T08:25:33;23.40;81.60
27026;DHT22;14565;48.626;8.978;2023-06-04T08:27:59;23.30;83.10
27026;DHT22;14565;48.626;8.978;2023-06-04T08:30:25;22.90;81.40
27026;DHT22;14565;48.626;8.978;2023-06-04T08:32:53;22.30;82.40
27026;DHT22;14565;48.626;8.978;2023-06-04T08:35:18;22.50;84.00
27026;DHT22;14565;48.626;8.978;2023-06-04T08:37:44;23.00;84.40
27026;DHT22;14565;48.626;8.978;2023-06-04T08:40:10;23.10;82.10
27026;DHT22;14565;48.626;8.978;2023-06-04T08:42:44;22.80;83.50
27026;DHT22;14565;48.626;8.978;2023-06-04T08:45:12;22.50;84.00
27026;DHT22;14565;48.626;8.978;2023-06-04T08:47:50;22.60;83.00
27026;DHT22;14565;48.626;8.978;2023-06-04T08:50:22;23.10;83.10
27026;DHT22;14565;48.626;8.978;2023-06-04T08:52:52;23.00;82.20
27026;DHT22;14565;48.626;8.978;2023-06-04T08:55:19;22.70;82.90
27026;DHT22;14565;48.626;8.978;2023-06-04T08:57:45;23.00;82.20
27026;DHT22;14565;48.626;8.978;2023-06-04T09:00:12;23.10;81.70
27026;DHT22;14565;48.626;8.978;2023-06-04T09:02:39;22.90;81.50
27026;DHT22;14565;48.626;8.978;2023-06-04T09:05:05;23.00;81.40
27026;DHT22;14565;48.626;8.978;2023-06-04T09:07:38;22.80;82.30
27026;DHT22;14565;48.626;8.978;2023-06-04T09:10:06;22.80;81.70
27026;DHT22;14565;48.626;8.978;2023-06-04T09:12:36;23.20;82.70
27026;DHT22;14565;48.626;8.978;2023-06-04T09:15:05;22.80;80.90
27026;DHT22;14565;48.626;8.978;2023-06-04T09:17:32;22.50;82.40
27026;DHT22;14565;48.626;8.978;2023-06-04T09:19:58;22.80;82.40
27026;DHT22;14565;48.626;8.978;2023-06-04T09:22:36;23.20;80.30
27026;DHT22;14565;48.626;8.978;2023-06-04T09:25:07;23.00;79.10
27026;DHT22;14565;48.626;8.978;2023-06-04T09:27:43;22.90;78.40
27026;DHT22;14565;48.626;8.978;2023-06-04T09:30:09;22.70;79.70
27026;DHT22;14565;48.626;8.978;2023-06-04T09:32:35;22.70;80.80
27026;DHT22;14565;48.626;8.978;2023-06-04T09:35:17;23.00;81.60
27026;DHT22;14565;48.626;8.978;2023-06-04T09:37:52;23.10;80.50
27026;DHT22;14565;48.626;8.978;2023-06-04T09:40:18;22.70;78.70
27026;DHT22;14565;48.626;8.978;2023-06-04T09:42:45;22.90;78.50
27026;DHT22;14565;48.626;8.978;2023-06-04T09:45:11;22.90;79.40
27026;DHT22;14565;48.626;8.978;2023-06-04T09:47:44;22.80;80.90
27026;DHT22;14565;48.626;8.978;2023-06-04T09:50:12;23.20;80.20
27026;DHT22;14565;48.626;8.978;2023-06-04T09:52:38;23.30;79.00
27026;DHT22;14565;48.626;8.978;2023-06-04T09:55:25;23.40;82.40
27026;DHT22;14565;48.626;8.978;2023-06-04T09:57:52;23.60;79.90
27026;DHT22;14565;48.626;8.978;2023-06-04T10:00:22;23.50;79.90
27026;DHT22;14565;48.626;8.978;2023-06-04T10:02:49;23.50;79.40
27026;DHT22;14565;48.626;8.978;2023-06-04T10:05:15;23.70;79.30
27026;DHT22;14565;48.626;8.978;2023-06-04T10:07:45;23.60;78.80
27026;DHT22;14565;48.626;8.978;2023-06-04T10:10:15;23.40;80.50
27026;DHT22;14565;48.626;8.978;2023-06-04T10:12:42;23.30;81.70
27026;DHT22;14565;48.626;8.978;2023-06-04T10:15:12;23.30;80.20
27026;DHT22;14565;48.626;8.978;2023-06-04T10:17:39;23.10;79.50
27026;DHT22;14565;48.626;8.978;2023-06-04T10:20:07;23.20;78.60
27026;DHT22;14565;48.626;8.978;2023-06-04T10:22:35;23.50;81.80
27026;DHT22;14565;48.626;8.978;2023-06-04T10:25:01;23.40;79.60
27026;DHT22;14565;48.626;8.978;2023-06-04T10:27:30;23.50;80.80
27026;DHT22;14565;48.626;8.978;2023-06-04T10:29:57;23.50;78.90
27026;DHT22;14565;48.626;8.978;2023-06-04T10:32:29;23.50;78.80
27026;DHT22;14565;48.626;8.978;2023-06-04T10:34:55;23.30;77.90
27026;DHT22;14565;48.626;8.978;2023-06-04T10:37:25;23.20;78.90
27026;DHT22;14565;48.626;8.978;2023-06-04T10:39:52;23.70;77.10
27026;DHT22;14565;48.626;8.978;2023-06-04T10:42:18;23.80;78.80
27026;DHT22;14565;48.626;8.978;2023-06-04T10:44:48;24.00;77.30
27026;DHT22;14565;48.626;8.978;2023-06-04T10:49:50;23.90;79.60
27026;DHT22;14565;48.626;8.978;2023-06-04T10:52:17;23.60;78.30
27026;DHT22;14565;48.626;8.978;2023-06-04T10:54:44;23.70;79.10
27026;DHT22;14565;48.626;8.978;2023-06-04T10:57:14;23.90;79.20
27026;DHT22;14565;48.626;8.978;2023-06-04T10:59:40;23.90;78.20
27026;DHT22;14565;48.626;8.978;2023-06-04T11:02:08;23.90;77.80
27026;DHT22;14565;48.626;8.978;2023-06-04T11:04:35;23.50;79.00
27026;DHT22;14565;48.626;8.978;2023-06-04T11:07:06;23.50;78.00
27026;DHT22;14565;48.626;8.978;2023-06-04T11:09:37;23.70;77.70
27026;DHT22;14565;48.626;8.978;2023-06-04T11:12:04;23.70;78.60
27026;DHT22;14565;48.626;8.978;2023-06-04T11:14:30;23.70;77.80
27026;DHT22;14565;48.626;8.978;2023-06-04T11:16:56;23.90;78.10
27026;DHT22;14565;48.626;8.978;2023-06-04T11:19:22;23.90;77.90
27026;DHT22;14565;48.626;8.978;2023-06-04T11:21:48;24.30;75.80
27026;DHT22;14565;48.626;8.978;2023-06-04T11:24:16;24.10;79.00
27026;DHT22;14565;48.626;8.978;2023-06-04T11:26:42;23.70;79.40
27026;DHT22;14565;48.626;8.978;2023-06-04T11:29:10;24.00;78.50
27026;DHT22;14565;48.626;8.978;2023-06-04T11:31:46;24.20;77.10
27026;DHT22;14565;48.626;8.978;2023-06-04T11:34:29;23.80;75.70
27026;DHT22;14565;48.626;8.978;2023-06-04T11:36:55;23.90;75.10
27026;DHT22;14565;48.626;8.978;2023-06-04T11:39:22;24.30;74.40
27026;DHT22;14565;48.626;8.978;2023-06-04T11:41:49;24.50;74.10
27026;DHT22;14565;48.626;8.978;2023-06-04T11:44:18;25.00;74.80
27026;DHT22;14565;48.626;8.978;2023-06-04T11:46:45;24.50;77.60
27026;DHT22;14565;48.626;8.978;2023-06-04T11:49:15;24.40;77.30
27026;DHT22;14565;48.626;8.978;2023-06-04T11:51:48;24.60;76.30
27026;DHT22;14565;48.626;8.978;2023-06-04T11:54:18;24.10;75.20
27026;DHT22;14565;48.626;8.978;2023-06-04T11:56:45;24.00;75.70
27026;DHT22;14565;48.626;8.978;2023-06-04T11:59:16;23.80;74.70
27026;DHT22;14565;48.626;8.978;2023-06-04T12:01:42;23.90;75.30
27026;DHT22;14565;48.626;8.978;2023-06-04T12:04:13;23.90;75.10
27026;DHT22;14565;48.626;8.978;2023-06-04T12:06:49;23.80;75.80
27026;DHT22;14565;48.626;8.978;2023-06-04T12:09:20;24.00;74.10
27026;DHT22;14565;48.626;8.978;2023-06-04T12:11:47;24.20;76.30
27026;DHT22;14565;48.626;8.978;2023-06-04T12:14:17;24.30;73.00
27026;DHT22;14565;48.626;8.978;2023-06-04T12:16:53;24.70;73.30
27026;DHT22;14565;48.626;8.978;2023-06-04T12:19:19;24.40;74.90
27026;DHT22;14565;48.626;8.978;2023-06-04T12:21:45;24.00;74.60
27026;DHT22;14565;48.626;8.978;2023-06-04T12:24:12;23.70;75.60
27026;DHT22;14565;48.626;8.978;2023-06-04T12:26:41;23.80;76.50
27026;DHT22;14565;48.626;8.978;2023-06-04T12:29:13;24.10;75.70
27026;DHT22;14565;48.626;8.978;2023-06-04T12:31:43;24.20;74.10
27026;DHT22;14565;48.626;8.978;2023-06-04T12:34:11;24.50;72.60
27026;DHT22;14565;48.626;8.978;2023-06-04T12:36:37;24.60;71.10
27026;DHT22;14565;48.626;8.978;2023-06-04T12:39:04;24.60;73.00
27026;DHT22;14565;48.626;8.978;2023-06-04T12:41:33;24.70;75.40
27026;DHT22;14565;48.626;8.978;2023-06-04T12:44:00;24.70;75.00
27026;DHT22;14565;48.626;8.978;2023-06-04T12:46:26;24.40;72.20
27026;DHT22;14565;48.626;8.978;2023-06-04T12:48:53;24.50;73.00
27026;DHT22;14565;48.626;8.978;2023-06-04T12:51:19;24.60;73.70
27026;DHT22;14565;48.626;8.978;2023-06-04T12:53:47;24.40;73.00
27026;DHT22;14565;48.626;8.978;2023-06-04T12:56:12;24.60;74.20
27026;DHT22;14565;48.626;8.978;2023-06-04T12:58:38;24.50;72.10
27026;DHT22;14565;48.626;8.978;2023-06-04T13:01:04;24.30;72.80
27026;DHT22;14565;48.626;8.978;2023-06-04T13:03:31;23.90;72.50
27026;DHT22;14565;48.626;8.978;2023-06-04T13:05:57;23.90;72.50
27026;DHT22;14565;48.626;8.978;2023-06-04T13:08:24;24.30;72.30
27026;DHT22;14565;48.626;8.978;2023-06-04T13:10:51;24.10;72.40
27026;DHT22;14565;48.626;8.978;2023-06-04T13:13:17;24.10;72.40
27026;DHT22;14565;48.626;8.978;2023-06-04T13:15:44;24.10;73.40
27026;DHT22;14565;48.626;8.978;2023-06-04T13:18:10;24.00;72.70
27026;DHT22;14565;48.626;8.978;2023-06-04T13:20:36;24.00;71.10
27026;DHT22;14565;48.626;8.978;2023-06-04T13:23:02;24.10;71.00
27026;DHT22;14565;48.626;8.978;2023-06-04T13:25:29;23.80;69.40
27026;DHT22;14565;48.626;8.978;2023-06-04T13:27:56;23.70;70.40
27026;DHT22;14565;48.626;8.978;2023-06-04T13:30:21;23.50;71.20
27026;DHT22;14565;48.626;8.978;2023-06-04T13:32:48;23.70;72.60
27026;DHT22;14565;48.626;8.978;2023-06-04T13:35:13;23.70;72.00
27026;DHT22;14565;48.626;8.978;2023-06-04T13:37:39;23.90;73.00
27026;DHT22;14565;48.626;8.978;2023-06-04T13:40:05;24.20;71.60
27026;DHT22;14565;48.626;8.978;2023-06-04T13:42:31;24.30;71.30
27026;DHT22;14565;48.626;8.978;2023-06-04T13:44:56;24.20;70.60
27026;DHT22;14565;48.626;8.978;2023-06-04T13:47:22;24.10;71.00
27026;DHT22;14565;48.626;8.978;2023-06-04T13:49:48;24.30;70.00
27026;DHT22;14565;48.626;8.978;2023-06-04T13:52:14;24.10;68.60
27026;DHT22;14565;48.626;8.978;2023-06-04T13:54:39;24.10;68.40
27026;DHT22;14565;48.626;8.978;2023-06-04T13:57:06;24.20;67.60
27026;DHT22;14565;48.626;8.978;2023-06-04T13:59:32;24.40;70.40
27026;DHT22;14565;48.626;8.978;2023-06-04T14:01:58;24.30;67.90
27026;DHT22;14565;48.626;8.978;2023-06-04T14:04:23;24.20;65.90
27026;DHT22;14565;48.626;8.978;2023-06-04T14:06:49;24.30;70.30
27026;DHT22;14565;48.626;8.978;2023-06-04T14:09:15;24.10;67.90
27026;DHT22;14565;48.626;8.978;2023-06-04T14:11:41;24.10;69.30
27026;DHT22;14565;48.626;8.978;2023-06-04T14:14:07;24.10;67.40
27026;DHT22;14565;48.626;8.978;2023-06-04T14:16:33;24.00;66.20
27026;DHT22;14565;48.626;8.978;2023-06-04T14:18:59;23.90;66.80
27026;DHT22;14565;48.626;8.978;2023-06-04T14:21:26;23.90;68.50
27026;DHT22;14565;48.626;8.978;2023-06-04T14:23:53;24.10;69.70
27026;DHT22;14565;48.626;8.978;2023-06-04T14:26:18;24.10;69.60
27026;DHT22;14565;48.626;8.978;2023-06-04T14:28:46;24.00;69.00
27026;DHT22;14565;48.626;8.978;2023-06-04T14:31:11;24.10;68.90
27026;DHT22;14565;48.626;8.978;2023-06-04T14:33:37;24.30;67.50
27026;DHT22;14565;48.626;8.978;2023-06-04T14:36:03;24.30;69.70
27026;DHT22;14565;48.626;8.978;2023-06-04T14:38:29;24.30;68.80
27026;DHT22;14565;48.626;8.978;2023-06-04T14:40:55;24.10;69.10
27026;DHT22;14565;48.626;8.978;2023-06-04T14:43:24;24.00;67.50
27026;DHT22;14565;48.626;8.978;2023-06-04T14:45:50;24.10;68.90
27026;DHT22;14565;48.626;8.978;2023-06-04T14:48:16;24.10;67.30
27026;DHT22;14565;48.626;8.978;2023-06-04T14:50:42;24.00;68.30
27026;DHT22;14565;48.626;8.978;2023-06-04T14:53:08;24.10;69.00
27026;DHT22;14565;48.626;8.978;2023-06-04T14:55:34;24.00;69.00
27026;DHT22;14565;48.626;8.978;2023-06-04T14:58:00;24.00;66.80
27026;DHT22;14565;48.626;8.978;2023-06-04T15:00:26;23.60;69.20
27026;DHT22;14565;48.626;8.978;2023-06-04T15:02:51;24.00;70.90
27026;DHT22;14565;48.626;8.978;2023-06-04T15:05:17;24.00;70.90
27026;DHT22;14565;48.626;8.978;2023-06-04T15:07:43;23.90;71.40
27026;DHT22;14565;48.626;8.978;2023-06-04T15:10:08;23.80;69.30
27026;DHT22;14565;48.626;8.978;2023-06-04T15:12:34;23.70;69.00
27026;DHT22;14565;48.626;8.978;2023-06-04T15:15:04;23.60;70.30
27026;DHT22;14565;48.626;8.978;2023-06-04T15:17:31;23.30;70.00
27026;DHT22;14565;48.626;8.978;2023-06-04T15:19:56;23.20;70.00
27026;DHT22;14565;48.626;8.978;2023-06-04T15:22:22;23.10;70.50
27026;DHT22;14565;48.626;8.978;2023-06-04T15:24:48;23.00;70.80
27026;DHT22;14565;48.626;8.978;2023-06-04T15:27:13;23.10;70.00
27026;DHT22;14565;48.626;8.978;2023-06-04T15:29:39;23.00;68.10
27026;DHT22;14565;48.626;8.978;2023-06-04T15:32:05;23.20;70.90
27026;DHT22;14565;48.626;8.978;2023-06-04T15:34:30;23.30;70.40
27026;DHT22;14565;48.626;8.978;2023-06-04T15:36:56;23.40;68.90
27026;DHT22;14565;48.626;8.978;2023-06-04T15:39:21;23.50;69.40
27026;DHT22;14565;48.626;8.978;2023-06-04T15:41:47;23.40;69.70